sensor_id;sensor_type;location;lat;lon;timestamp;P1;durP1;ratioP1;P2;durP2;ratioP2
2538;SDS011;1280;49.760;9.664;2024-01-16T00:02:15;7.15;;;3.85;;
2538;SDS011;1280;49.760;9.664;2024-01-16T00:04:44;15.05;;;4.60;;
2538;SDS011;1280;49.760;9.664;2024-01-16T00:07:11;7.77;;;4.10;;
2538;SDS011;1280;49.760;9.664;2024-01-16T00:09:40;10.38;;;4.30;;
2538;SDS011;1280;49.760;9.664;2024-01-16T00:12:08;6.65;;;3.90;;
2538;SDS011;1280;49.760;9.664;2024-01-16T00:14:36;9.02;;;4.30;;
2538;SDS011;1280;49.760;9.664;2024-01-16T00:17:04;9.65;;;4.32;;
2538;SDS011;1280;49.760;9.664;2024-01-16T00:19:34;11.35;;;5.00;;
2538;SDS011;1280;49.760;9.664;2024-01-16T00:22:03;9.60;;;4.88;;
2538;SDS011;1280;49.760;9.664;2024-01-16T00:24:31;7.97;;;4.30;;
2538;SDS011;1280;49.760;9.664;2024-01-16T00:26:59;9.48;;;5.10;;
2538;SDS011;1280;49.760;9.664;2024-01-16T00:29:27;8.90;;;5.80;;
2538;SDS011;1280;49.760;9.664;2024-01-16T00:31:57;14.45;;;5.38;;
2538;SDS011;1280;49.760;9.664;2024-01-16T00:34:25;12.18;;;5.30;;
2538;SDS011;1280;49.760;9.664;2024-01-16T00:36:54;11.52;;;5.70;;
2538;SDS011;1280;49.760;9.664;2024-01-16T00:39:22;9.70;;;5.25;;
2538;SDS011;1280;49.760;9.664;2024-01-16T00:41:51;11.57;;;5.70;;
2538;SDS011;1280;49.760;9.664;2024-01-16T00:44:19;10.75;;;6.13;;
2538;SDS011;1280;49.760;9.664;2024-01-16T00:46:49;11.18;;;5.60;;
2538;SDS011;1280;49.760;9.664;2024-01-16T00:49:17;11.07;;;5.20;;
2538;SDS011;1280;49.760;9.664;2024-01-16T00:51:47;9.77;;;5.40;;
2538;SDS011;1280;49.760;9.664;2024-01-16T00:54:17;15.23;;;6.30;;
2538;SDS011;1280;49.760;9.664;2024-01-16T00:56:44;11.65;;;5.65;;
2538;SDS011;1280;49.760;9.664;2024-01-16T00:59:14;11.75;;;5.50;;
2538;SDS011;1280;49.760;9.664;2024-01-16T01:01:42;16.40;;;6.68;;
2538;SDS011;1280;49.760;9.664;2024-01-16T01:04:10;13.85;;;6.40;;
2538;SDS011;1280;49.760;9.664;2024-01-16T01:06:38;10.77;;;6.30;;
2538;SDS011;1280;49.760;9.664;2024-01-16T01:09:06;12.23;;;7.13;;
2538;SDS011;1280;49.760;9.664;2024-01-16T01:11:38;12.82;;;7.05;;
2538;SDS011;1280;49.760;9.664;2024-01-16T01:14:06;11.50;;;7.07;;
2538;SDS011;1280;49.760;9.664;2024-01-16T01:16:34;9.93;;;7.05;;
2538;SDS011;1280;49.760;9.664;2024-01-16T01:19:02;8.70;;;6.22;;
2538;SDS011;1280;49.760;9.664;2024-01-16T01:21:30;14.10;;;7.63;;
2538;SDS011;1280;49.760;9.664;2024-01-16T01:23:58;14.05;;;7.35;;
2538;SDS011;1280;49.760;9.664;2024-01-16T01:26:26;11.07;;;6.82;;
2538;SDS011;1280;49.760;9.664;2024-01-16T01:28:56;12.30;;;6.28;;
2538;SDS011;1280;49.760;9.664;2024-01-16T01:31:24;10.85;;;6.95;;
2538;SDS011;1280;49.760;9.664;2024-01-16T01:33:52;11.63;;;6.30;;
2538;SDS011;1280;49.760;9.664;2024-01-16T01:36:20;12.25;;;6.65;;
2538;SDS011;1280;49.760;9.664;2024-01-16T01:38:48;13.38;;;6.65;;
2538;SDS011;1280;49.760;9.664;2024-01-16T01:41:17;11.93;;;6.18;;
2538;SDS011;1280;49.760;9.664;2024-01-16T01:43:46;12.52;;;6.93;;
2538;SDS011;1280;49.760;9.664;2024-01-16T01:46:16;9.98;;;6.70;;
2538;SDS011;1280;49.760;9.664;2024-01-16T01:48:46;12.55;;;6.97;;
2538;SDS011;1280;49.760;9.664;2024-01-16T01:51:17;11.27;;;6.60;;
2538;SDS011;1280;49.760;9.664;2024-01-16T01:53:46;12.18;;;6.00;;
2538;SDS011;1280;49.760;9.664;2024-01-16T01:56:17;12.82;;;8.15;;
2538;SDS011;1280;49.760;9.664;2024-01-16T01:58:46;14.20;;;6.80;;
2538;SDS011;1280;49.760;9.664;2024-01-16T02:01:18;13.85;;;6.03;;
2538;SDS011;1280;49.760;9.664;2024-01-16T02:03:49;10.13;;;5.95;;
2538;SDS011;1280;49.760;9.664;2024-01-16T02:06:18;14.88;;;6.78;;
2538;SDS011;1280;49.760;9.664;2024-01-16T02:08:46;11.63;;;6.53;;
2538;SDS011;1280;49.760;9.664;2024-01-16T02:11:14;15.60;;;5.68;;
2538;SDS011;1280;49.760;9.664;2024-01-16T02:13:42;10.68;;;6.47;;
2538;SDS011;1280;49.760;9.664;2024-01-16T02:16:23;15.73;;;6.88;;
2538;SDS011;1280;49.760;9.664;2024-01-16T02:18:51;14.70;;;6.90;;
2538;SDS011;1280;49.760;9.664;2024-01-16T02:21:20;11.35;;;6.45;;
2538;SDS011;1280;49.760;9.664;2024-01-16T02:23:51;12.60;;;6.35;;
2538;SDS011;1280;49.760;9.664;2024-01-16T02:26:19;13.02;;;6.60;;
2538;SDS011;1280;49.760;9.664;2024-01-16T02:28:48;11.52;;;5.75;;
2538;SDS011;1280;49.760;9.664;2024-01-16T02:31:16;14.60;;;7.95;;
2538;SDS011;1280;49.760;9.664;2024-01-16T02:33:44;12.02;;;6.53;;
2538;SDS011;1280;49.760;9.664;2024-01-16T02:36:12;12.93;;;7.20;;
2538;SDS011;1280;49.760;9.664;2024-01-16T02:38:40;11.80;;;6.80;;
2538;SDS011;1280;49.760;9.664;2024-01-16T02:41:14;13.45;;;6.75;;
2538;SDS011;1280;49.760;9.664;2024-01-16T02:43:43;10.63;;;7.03;;
2538;SDS011;1280;49.760;9.664;2024-01-16T02:46:11;17.00;;;7.65;;
2538;SDS011;1280;49.760;9.664;2024-01-16T02:48:39;15.60;;;7.20;;
2538;SDS011;1280;49.760;9.664;2024-01-16T02:51:09;16.98;;;7.70;;
2538;SDS011;1280;49.760;9.664;2024-01-16T02:53:39;14.02;;;7.70;;
2538;SDS011;1280;49.760;9.664;2024-01-16T02:56:07;15.32;;;8.05;;
2538;SDS011;1280;49.760;9.664;2024-01-16T02:58:37;18.20;;;7.90;;
2538;SDS011;1280;49.760;9.664;2024-01-16T03:01:05;14.02;;;7.40;;
2538;SDS011;1280;49.760;9.664;2024-01-16T03:03:33;17.30;;;8.15;;
2538;SDS011;1280;49.760;9.664;2024-01-16T03:06:02;16.80;;;8.00;;
2538;SDS011;1280;49.760;9.664;2024-01-16T03:08:31;11.75;;;7.45;;
2538;SDS011;1280;49.760;9.664;2024-01-16T03:10:59;11.95;;;7.43;;
2538;SDS011;1280;49.760;9.664;2024-01-16T03:13:28;19.17;;;7.90;;
2538;SDS011;1280;49.760;9.664;2024-01-16T03:15:57;11.05;;;7.97;;
2538;SDS011;1280;49.760;9.664;2024-01-16T03:18:26;13.88;;;7.55;;
2538;SDS011;1280;49.760;9.664;2024-01-16T03:20:54;17.30;;;9.60;;
2538;SDS011;1280;49.760;9.664;2024-01-16T03:23:22;14.20;;;7.95;;
2538;SDS011;1280;49.760;9.664;2024-01-16T03:25:50;14.57;;;8.30;;
2538;SDS011;1280;49.760;9.664;2024-01-16T03:28:20;12.25;;;8.13;;
2538;SDS011;1280;49.760;9.664;2024-01-16T03:30:48;14.27;;;8.32;;
2538;SDS011;1280;49.760;9.664;2024-01-16T03:33:17;13.93;;;6.90;;
2538;SDS011;1280;49.760;9.664;2024-01-16T03:35:45;11.48;;;7.60;;
2538;SDS011;1280;49.760;9.664;2024-01-16T03:38:14;13.60;;;8.15;;
2538;SDS011;1280;49.760;9.664;2024-01-16T03:40:42;17.38;;;7.93;;
2538;SDS011;1280;49.760;9.664;2024-01-16T03:43:10;15.73;;;8.35;;
2538;SDS011;1280;49.760;9.664;2024-01-16T03:45:38;11.05;;;7.95;;
2538;SDS011;1280;49.760;9.664;2024-01-16T03:48:06;13.65;;;8.52;;
2538;SDS011;1280;49.760;9.664;2024-01-16T03:50:36;16.08;;;8.65;;
2538;SDS011;1280;49.760;9.664;2024-01-16T03:53:04;17.17;;;8.05;;
2538;SDS011;1280;49.760;9.664;2024-01-16T03:55:32;12.63;;;7.45;;
2538;SDS011;1280;49.760;9.664;2024-01-16T03:58:00;17.60;;;8.23;;
2538;SDS011;1280;49.760;9.664;2024-01-16T04:00:28;13.63;;;7.80;;
2538;SDS011;1280;49.760;9.664;2024-01-16T04:02:56;11.82;;;8.02;;
2538;SDS011;1280;49.760;9.664;2024-01-16T04:05:24;11.18;;;7.82;;
2538;SDS011;1280;49.760;9.664;2024-01-16T04:07:56;14.45;;;8.65;;
2538;SDS011;1280;49.760;9.664;2024-01-16T04:10:25;14.63;;;7.95;;
2538;SDS011;1280;49.760;9.664;2024-01-16T04:12:54;16.45;;;8.40;;
2538;SDS011;1280;49.760;9.664;2024-01-16T04:15:22;13.38;;;7.85;;
2538;SDS011;1280;49.760;9.664;2024-01-16T04:17:50;12.80;;;8.40;;
2538;SDS011;1280;49.760;9.664;2024-01-16T04:20:18;16.55;;;8.25;;
2538;SDS011;1280;49.760;9.664;2024-01-16T04:22:46;15.93;;;7.95;;
2538;SDS011;1280;49.760;9.664;2024-01-16T04:25:16;16.23;;;8.52;;
2538;SDS011;1280;49.760;9.664;2024-01-16T04:27:44;11.15;;;8.10;;
2538;SDS011;1280;49.760;9.664;2024-01-16T04:30:12;19.13;;;8.82;;
2538;SDS011;1280;49.760;9.664;2024-01-16T04:32:40;15.13;;;9.23;;
2538;SDS011;1280;49.760;9.664;2024-01-16T04:35:09;12.60;;;7.53;;
2538;SDS011;1280;49.760;9.664;2024-01-16T04:37:38;13.05;;;7.55;;
2538;SDS011;1280;49.760;9.664;2024-01-16T04:40:07;22.17;;;8.88;;
2538;SDS011;1280;49.760;9.664;2024-01-16T04:42:38;13.23;;;7.68;;
2538;SDS011;1280;49.760;9.664;2024-01-16T04:45:08;14.10;;;7.15;;
2538;SDS011;1280;49.760;9.664;2024-01-16T04:47:36;14.18;;;7.28;;
2538;SDS011;1280;49.760;9.664;2024-01-16T04:50:05;17.77;;;7.90;;
2538;SDS011;1280;49.760;9.664;2024-01-16T04:52:35;14.85;;;7.88;;
2538;SDS011;1280;49.760;9.664;2024-01-16T04:55:04;14.15;;;7.40;;
2538;SDS011;1280;49.760;9.664;2024-01-16T04:57:32;14.18;;;8.07;;
2538;SDS011;1280;49.760;9.664;2024-01-16T05:00:02;13.15;;;7.82;;
2538;SDS011;1280;49.760;9.664;2024-01-16T05:02:33;11.27;;;7.90;;
2538;SDS011;1280;49.760;9.664;2024-01-16T05:05:02;12.60;;;7.90;;
2538;SDS011;1280;49.760;9.664;2024-01-16T05:07:34;15.73;;;8.18;;
2538;SDS011;1280;49.760;9.664;2024-01-16T05:10:02;14.07;;;8.25;;
2538;SDS011;1280;49.760;9.664;2024-01-16T05:12:32;17.65;;;8.52;;
2538;SDS011;1280;49.760;9.664;2024-01-16T05:15:01;12.65;;;8.68;;
2538;SDS011;1280;49.760;9.664;2024-01-16T05:17:29;15.95;;;8.85;;
2538;SDS011;1280;49.760;9.664;2024-01-16T05:19:58;14.95;;;8.20;;
2538;SDS011;1280;49.760;9.664;2024-01-16T05:22:26;11.88;;;7.30;;
2538;SDS011;1280;49.760;9.664;2024-01-16T05:24:54;14.75;;;8.30;;
2538;SDS011;1280;49.760;9.664;2024-01-16T05:27:22;11.77;;;6.63;;
2538;SDS011;1280;49.760;9.664;2024-01-16T05:29:51;22.38;;;8.00;;
2538;SDS011;1280;49.760;9.664;2024-01-16T05:32:21;11.43;;;8.20;;
2538;SDS011;1280;49.760;9.664;2024-01-16T05:34:49;15.93;;;8.27;;
2538;SDS011;1280;49.760;9.664;2024-01-16T05:37:16;12.80;;;7.20;;
2538;SDS011;1280;49.760;9.664;2024-01-16T05:39:44;12.50;;;7.60;;
2538;SDS011;1280;49.760;9.664;2024-01-16T05:42:12;12.15;;;7.55;;
2538;SDS011;1280;49.760;9.664;2024-01-16T05:44:41;15.90;;;7.80;;
2538;SDS011;1280;49.760;9.664;2024-01-16T05:47:09;13.65;;;7.95;;
2538;SDS011;1280;49.760;9.664;2024-01-16T05:49:38;17.70;;;8.27;;
2538;SDS011;1280;49.760;9.664;2024-01-16T05:52:08;21.00;;;8.50;;
2538;SDS011;1280;49.760;9.664;2024-01-16T05:54:36;17.63;;;9.20;;
2538;SDS011;1280;49.760;9.664;2024-01-16T05:57:04;15.30;;;9.35;;
2538;SDS011;1280;49.760;9.664;2024-01-16T05:59:32;16.15;;;9.57;;
2538;SDS011;1280;49.760;9.664;2024-01-16T06:02:00;18.15;;;9.55;;
2538;SDS011;1280;49.760;9.664;2024-01-16T06:04:28;20.08;;;9.73;;
2538;SDS011;1280;49.760;9.664;2024-01-16T06:06:57;15.65;;;9.52;;
2538;SDS011;1280;49.760;9.664;2024-01-16T06:09:25;16.27;;;10.30;;
2538;SDS011;1280;49.760;9.664;2024-01-16T06:11:53;16.45;;;8.80;;
2538;SDS011;1280;49.760;9.664;2024-01-16T06:14:21;21.13;;;10.18;;
2538;SDS011;1280;49.760;9.664;2024-01-16T06:16:49;13.70;;;9.35;;
2538;SDS011;1280;49.760;9.664;2024-01-16T06:19:18;14.90;;;8.93;;
2538;SDS011;1280;49.760;9.664;2024-01-16T06:21:46;18.23;;;9.07;;
2538;SDS011;1280;49.760;9.664;2024-01-16T06:24:15;15.13;;;8.57;;
2538;SDS011;1280;49.760;9.664;2024-01-16T06:26:44;17.80;;;9.95;;
2538;SDS011;1280;49.760;9.664;2024-01-16T06:29:12;19.65;;;9.45;;
2538;SDS011;1280;49.760;9.664;2024-01-16T06:31:53;18.05;;;10.25;;
2538;SDS011;1280;49.760;9.664;2024-01-16T06:34:22;17.55;;;9.10;;
2538;SDS011;1280;49.760;9.664;2024-01-16T06:36:50;22.58;;;9.88;;
2538;SDS011;1280;49.760;9.664;2024-01-16T06:39:19;18.15;;;9.35;;
2538;SDS011;1280;49.760;9.664;2024-01-16T06:41:47;19.70;;;8.23;;
2538;SDS011;1280;49.760;9.664;2024-01-16T06:44:15;24.95;;;9.55;;
2538;SDS011;1280;49.760;9.664;2024-01-16T06:46:43;19.27;;;10.27;;
2538;SDS011;1280;49.760;9.664;2024-01-16T06:49:11;18.77;;;9.73;;
2538;SDS011;1280;49.760;9.664;2024-01-16T06:51:39;21.33;;;9.48;;
2538;SDS011;1280;49.760;9.664;2024-01-16T06:54:07;17.50;;;9.85;;
2538;SDS011;1280;49.760;9.664;2024-01-16T06:56:37;20.48;;;10.45;;
2538;SDS011;1280;49.760;9.664;2024-01-16T06:59:05;18.55;;;10.05;;
2538;SDS011;1280;49.760;9.664;2024-01-16T07:01:37;16.55;;;9.68;;
2538;SDS011;1280;49.760;9.664;2024-01-16T07:04:05;18.80;;;10.43;;
2538;SDS011;1280;49.760;9.664;2024-01-16T07:06:34;19.58;;;10.52;;
2538;SDS011;1280;49.760;9.664;2024-01-16T07:09:03;21.08;;;12.00;;
2538;SDS011;1280;49.760;9.664;2024-01-16T07:11:33;23.27;;;10.88;;
2538;SDS011;1280;49.760;9.664;2024-01-16T07:14:02;19.70;;;11.02;;
2538;SDS011;1280;49.760;9.664;2024-01-16T07:16:30;14.68;;;10.10;;
2538;SDS011;1280;49.760;9.664;2024-01-16T07:18:58;17.77;;;9.52;;
2538;SDS011;1280;49.760;9.664;2024-01-16T07:21:26;20.38;;;10.35;;
2538;SDS011;1280;49.760;9.664;2024-01-16T07:23:54;17.60;;;10.10;;
2538;SDS011;1280;49.760;9.664;2024-01-16T07:26:23;19.25;;;10.30;;
2538;SDS011;1280;49.760;9.664;2024-01-16T07:28:51;15.90;;;9.63;;
2538;SDS011;1280;49.760;9.664;2024-01-16T07:31:21;17.55;;;9.88;;
2538;SDS011;1280;49.760;9.664;2024-01-16T07:33:49;17.40;;;10.57;;
2538;SDS011;1280;49.760;9.664;2024-01-16T07:36:17;17.77;;;10.68;;
2538;SDS011;1280;49.760;9.664;2024-01-16T07:38:45;16.70;;;10.55;;
2538;SDS011;1280;49.760;9.664;2024-01-16T07:41:14;22.02;;;10.43;;
2538;SDS011;1280;49.760;9.664;2024-01-16T07:43:42;20.58;;;10.73;;
2538;SDS011;1280;49.760;9.664;2024-01-16T07:46:15;18.40;;;11.45;;
2538;SDS011;1280;49.760;9.664;2024-01-16T07:48:45;17.70;;;10.43;;
2538;SDS011;1280;49.760;9.664;2024-01-16T07:51:13;19.88;;;10.48;;
2538;SDS011;1280;49.760;9.664;2024-01-16T07:53:41;18.52;;;10.23;;
2538;SDS011;1280;49.760;9.664;2024-01-16T07:56:09;14.90;;;9.50;;
2538;SDS011;1280;49.760;9.664;2024-01-16T07:58:37;18.92;;;10.27;;
2538;SDS011;1280;49.760;9.664;2024-01-16T08:01:05;16.70;;;9.63;;
2538;SDS011;1280;49.760;9.664;2024-01-16T08:03:34;19.58;;;10.00;;
2538;SDS011;1280;49.760;9.664;2024-01-16T08:06:03;20.02;;;10.07;;
2538;SDS011;1280;49.760;9.664;2024-01-16T08:08:32;20.52;;;9.68;;
2538;SDS011;1280;49.760;9.664;2024-01-16T08:11:02;18.00;;;9.80;;
2538;SDS011;1280;49.760;9.664;2024-01-16T08:13:30;20.40;;;10.15;;
2538;SDS011;1280;49.760;9.664;2024-01-16T08:15:58;20.38;;;9.65;;
2538;SDS011;1280;49.760;9.664;2024-01-16T08:18:26;19.95;;;10.50;;
2538;SDS011;1280;49.760;9.664;2024-01-16T08:20:54;18.70;;;9.75;;
2538;SDS011;1280;49.760;9.664;2024-01-16T08:23:24;16.85;;;9.68;;
2538;SDS011;1280;49.760;9.664;2024-01-16T08:25:52;15.95;;;9.40;;
2538;SDS011;1280;49.760;9.664;2024-01-16T08:28:20;14.60;;;9.30;;
2538;SDS011;1280;49.760;9.664;2024-01-16T08:30:50;20.13;;;10.02;;
2538;SDS011;1280;49.760;9.664;2024-01-16T08:33:18;23.17;;;9.50;;
2538;SDS011;1280;49.760;9.664;2024-01-16T08:35:59;19.33;;;9.95;;
2538;SDS011;1280;49.760;9.664;2024-01-16T08:38:28;17.10;;;9.40;;
2538;SDS011;1280;49.760;9.664;2024-01-16T08:40:56;17.40;;;9.90;;
2538;SDS011;1280;49.760;9.664;2024-01-16T08:43:24;18.83;;;10.23;;
2538;SDS011;1280;49.760;9.664;2024-01-16T08:45:52;17.27;;;9.35;;
2538;SDS011;1280;49.760;9.664;2024-01-16T08:48:20;19.90;;;10.25;;
2538;SDS011;1280;49.760;9.664;2024-01-16T08:50:49;16.15;;;9.40;;
2538;SDS011;1280;49.760;9.664;2024-01-16T08:53:17;15.48;;;9.15;;
2538;SDS011;1280;49.760;9.664;2024-01-16T08:55:46;23.02;;;11.27;;
2538;SDS011;1280;49.760;9.664;2024-01-16T08:58:14;19.95;;;10.10;;
2538;SDS011;1280;49.760;9.664;2024-01-16T09:00:42;19.98;;;9.15;;
2538;SDS011;1280;49.760;9.664;2024-01-16T09:03:11;17.33;;;9.43;;
2538;SDS011;1280;49.760;9.664;2024-01-16T09:05:39;15.13;;;9.27;;
2538;SDS011;1280;49.760;9.664;2024-01-16T09:08:07;15.63;;;9.65;;
2538;SDS011;1280;49.760;9.664;2024-01-16T09:10:39;18.42;;;8.52;;
2538;SDS011;1280;49.760;9.664;2024-01-16T09:13:08;22.17;;;9.00;;
2538;SDS011;1280;49.760;9.664;2024-01-16T09:15:36;20.33;;;9.35;;
2538;SDS011;1280;49.760;9.664;2024-01-16T09:18:04;14.05;;;8.10;;
2538;SDS011;1280;49.760;9.664;2024-01-16T09:20:33;18.73;;;8.82;;
2538;SDS011;1280;49.760;9.664;2024-01-16T09:23:01;20.45;;;9.90;;
2538;SDS011;1280;49.760;9.664;2024-01-16T09:25:29;14.00;;;8.27;;
2538;SDS011;1280;49.760;9.664;2024-01-16T09:27:57;17.45;;;8.05;;
2538;SDS011;1280;49.760;9.664;2024-01-16T09:30:27;15.18;;;7.90;;
2538;SDS011;1280;49.760;9.664;2024-01-16T09:32:55;16.60;;;8.38;;
2538;SDS011;1280;49.760;9.664;2024-01-16T09:35:23;15.35;;;7.90;;
2538;SDS011;1280;49.760;9.664;2024-01-16T09:37:51;15.98;;;7.30;;
2538;SDS011;1280;49.760;9.664;2024-01-16T09:40:19;12.02;;;7.28;;
2538;SDS011;1280;49.760;9.664;2024-01-16T09:42:48;13.55;;;7.20;;
2538;SDS011;1280;49.760;9.664;2024-01-16T09:45:19;15.80;;;7.20;;
2538;SDS011;1280;49.760;9.664;2024-01-16T09:47:51;9.30;;;6.03;;
2538;SDS011;1280;49.760;9.664;2024-01-16T09:50:19;13.43;;;6.53;;
2538;SDS011;1280;49.760;9.664;2024-01-16T09:52:48;11.30;;;5.28;;
2538;SDS011;1280;49.760;9.664;2024-01-16T09:55:17;12.93;;;6.45;;
2538;SDS011;1280;49.760;9.664;2024-01-16T09:57:45;11.13;;;6.40;;
2538;SDS011;1280;49.760;9.664;2024-01-16T10:00:19;13.60;;;6.07;;
2538;SDS011;1280;49.760;9.664;2024-01-16T10:02:47;14.48;;;6.80;;
2538;SDS011;1280;49.760;9.664;2024-01-16T10:05:17;12.85;;;6.97;;
2538;SDS011;1280;49.760;9.664;2024-01-16T10:07:46;13.38;;;6.97;;
2538;SDS011;1280;49.760;9.664;2024-01-16T10:10:14;15.38;;;6.57;;
2538;SDS011;1280;49.760;9.664;2024-01-16T10:12:56;13.82;;;6.47;;
2538;SDS011;1280;49.760;9.664;2024-01-16T10:15:24;12.27;;;6.85;;
2538;SDS011;1280;49.760;9.664;2024-01-16T10:17:54;12.23;;;7.25;;
2538;SDS011;1280;49.760;9.664;2024-01-16T10:20:32;13.38;;;6.50;;
2538;SDS011;1280;49.760;9.664;2024-01-16T10:23:00;12.85;;;7.22;;
2538;SDS011;1280;49.760;9.664;2024-01-16T10:25:30;12.13;;;7.20;;
2538;SDS011;1280;49.760;9.664;2024-01-16T10:28:02;15.18;;;8.27;;
2538;SDS011;1280;49.760;9.664;2024-01-16T10:30:32;15.30;;;7.93;;
2538;SDS011;1280;49.760;9.664;2024-01-16T10:33:13;16.63;;;9.68;;
2538;SDS011;1280;49.760;9.664;2024-01-16T10:35:43;15.18;;;7.80;;
2538;SDS011;1280;49.760;9.664;2024-01-16T10:38:11;13.65;;;7.45;;
2538;SDS011;1280;49.760;9.664;2024-01-16T10:40:47;14.93;;;8.20;;
2538;SDS011;1280;49.760;9.664;2024-01-16T10:43:31;17.95;;;7.93;;
2538;SDS011;1280;49.760;9.664;2024-01-16T10:46:06;14.88;;;7.88;;
2538;SDS011;1280;49.760;9.664;2024-01-16T10:48:36;14.43;;;8.35;;
2538;SDS011;1280;49.760;9.664;2024-01-16T10:51:05;14.70;;;8.40;;
2538;SDS011;1280;49.760;9.664;2024-01-16T10:53:35;16.48;;;7.93;;
2538;SDS011;1280;49.760;9.664;2024-01-16T10:56:04;18.45;;;8.57;;
2538;SDS011;1280;49.760;9.664;2024-01-16T10:58:39;17.08;;;9.00;;
2538;SDS011;1280;49.760;9.664;2024-01-16T11:01:10;16.23;;;8.68;;
2538;SDS011;1280;49.760;9.664;2024-01-16T11:03:43;17.35;;;8.30;;
2538;SDS011;1280;49.760;9.664;2024-01-16T11:06:16;13.45;;;7.38;;
2538;SDS011;1280;49.760;9.664;2024-01-16T11:08:46;13.98;;;7.90;;
2538;SDS011;1280;49.760;9.664;2024-01-16T11:11:15;19.30;;;7.95;;
2538;SDS011;1280;49.760;9.664;2024-01-16T11:13:45;12.05;;;6.60;;
2538;SDS011;1280;49.760;9.664;2024-01-16T11:16:14;15.55;;;6.65;;
2538;SDS011;1280;49.760;9.664;2024-01-16T11:18:43;15.93;;;6.80;;
2538;SDS011;1280;49.760;9.664;2024-01-16T11:21:12;15.85;;;6.00;;
2538;SDS011;1280;49.760;9.664;2024-01-16T11:23:45;13.57;;;6.10;;
2538;SDS011;1280;49.760;9.664;2024-01-16T11:32:01;11.50;;;6.95;;
2538;SDS011;1280;49.760;9.664;2024-01-16T11:34:54;13.10;;;7.72;;
2538;SDS011;1280;49.760;9.664;2024-01-16T11:37:26;14.50;;;7.55;;
2538;SDS011;1280;49.760;9.664;2024-01-16T11:42:49;17.85;;;7.15;;
2538;SDS011;1280;49.760;9.664;2024-01-16T11:48:17;14.27;;;6.07;;
2538;SDS011;1280;49.760;9.664;2024-01-16T11:50:48;13.15;;;6.72;;
2538;SDS011;1280;49.760;9.664;2024-01-16T11:53:32;19.45;;;7.75;;
2538;SDS011;1280;49.760;9.664;2024-01-16T11:56:12;13.63;;;7.55;;
2538;SDS011;1280;49.760;9.664;2024-01-16T11:59:18;14.27;;;7.63;;
2538;SDS011;1280;49.760;9.664;2024-01-16T12:02:09;13.95;;;8.60;;
2538;SDS011;1280;49.760;9.664;2024-01-16T12:04:41;17.33;;;8.80;;
2538;SDS011;1280;49.760;9.664;2024-01-16T12:07:10;13.25;;;7.03;;
2538;SDS011;1280;49.760;9.664;2024-01-16T12:09:39;17.48;;;7.97;;
2538;SDS011;1280;49.760;9.664;2024-01-16T12:12:07;20.00;;;8.40;;
2538;SDS011;1280;49.760;9.664;2024-01-16T12:14:35;16.83;;;7.97;;
2538;SDS011;1280;49.760;9.664;2024-01-16T12:17:10;17.58;;;8.25;;
2538;SDS011;1280;49.760;9.664;2024-01-16T12:19:39;14.63;;;8.05;;
2538;SDS011;1280;49.760;9.664;2024-01-16T12:22:12;16.30;;;8.40;;
2538;SDS011;1280;49.760;9.664;2024-01-16T12:24:41;17.55;;;8.20;;
2538;SDS011;1280;49.760;9.664;2024-01-16T12:27:09;13.55;;;6.93;;
2538;SDS011;1280;49.760;9.664;2024-01-16T12:29:37;15.77;;;8.60;;
2538;SDS011;1280;49.760;9.664;2024-01-16T12:32:08;15.00;;;7.80;;
2538;SDS011;1280;49.760;9.664;2024-01-16T12:34:43;20.27;;;9.27;;
2538;SDS011;1280;49.760;9.664;2024-01-16T12:37:14;19.65;;;8.77;;
2538;SDS011;1280;49.760;9.664;2024-01-16T12:39:43;24.15;;;8.23;;
2538;SDS011;1280;49.760;9.664;2024-01-16T12:42:11;14.60;;;7.53;;
2538;SDS011;1280;49.760;9.664;2024-01-16T12:44:42;18.83;;;7.90;;
2538;SDS011;1280;49.760;9.664;2024-01-16T12:47:10;15.18;;;7.68;;
2538;SDS011;1280;49.760;9.664;2024-01-16T12:49:42;15.70;;;7.28;;
2538;SDS011;1280;49.760;9.664;2024-01-16T12:52:18;16.70;;;7.20;;
2538;SDS011;1280;49.760;9.664;2024-01-16T12:54:48;18.38;;;7.25;;
2538;SDS011;1280;49.760;9.664;2024-01-16T12:57:25;15.88;;;6.90;;
2538;SDS011;1280;49.760;9.664;2024-01-16T12:59:53;16.05;;;8.02;;
2538;SDS011;1280;49.760;9.664;2024-01-16T13:02:24;15.55;;;7.75;;
2538;SDS011;1280;49.760;9.664;2024-01-16T13:04:56;15.65;;;8.13;;
2538;SDS011;1280;49.760;9.664;2024-01-16T13:07:27;12.20;;;7.78;;
2538;SDS011;1280;49.760;9.664;2024-01-16T13:10:07;14.95;;;7.35;;
2538;SDS011;1280;49.760;9.664;2024-01-16T13:12:36;14.52;;;6.97;;
2538;SDS011;1280;49.760;9.664;2024-01-16T13:15:04;21.50;;;8.95;;
2538;SDS011;1280;49.760;9.664;2024-01-16T13:17:33;12.82;;;7.07;;
2538;SDS011;1280;49.760;9.664;2024-01-16T13:20:02;13.85;;;7.65;;
2538;SDS011;1280;49.760;9.664;2024-01-16T13:22:35;17.05;;;8.00;;
2538;SDS011;1280;49.760;9.664;2024-01-16T13:25:12;13.15;;;7.85;;
2538;SDS011;1280;49.760;9.664;2024-01-16T13:27:41;14.45;;;7.70;;
2538;SDS011;1280;49.760;9.664;2024-01-16T13:30:09;12.80;;;7.90;;
2538;SDS011;1280;49.760;9.664;2024-01-16T13:32:38;19.98;;;9.57;;
2538;SDS011;1280;49.760;9.664;2024-01-16T13:35:06;18.35;;;9.00;;
2538;SDS011;1280;49.760;9.664;2024-01-16T13:37:37;15.25;;;9.60;;
2538;SDS011;1280;49.760;9.664;2024-01-16T13:40:07;15.02;;;8.85;;
2538;SDS011;1280;49.760;9.664;2024-01-16T13:42:38;16.27;;;9.25;;
2538;SDS011;1280;49.760;9.664;2024-01-16T13:45:06;21.02;;;9.18;;
2538;SDS011;1280;49.760;9.664;2024-01-16T13:47:35;15.85;;;9.63;;
2538;SDS011;1280;49.760;9.664;2024-01-16T13:50:06;14.70;;;8.77;;
2538;SDS011;1280;49.760;9.664;2024-01-16T13:52:36;16.45;;;9.48;;
2538;SDS011;1280;49.760;9.664;2024-01-16T13:55:06;16.55;;;8.82;;
2538;SDS011;1280;49.760;9.664;2024-01-16T13:57:35;19.27;;;9.40;;
2538;SDS011;1280;49.760;9.664;2024-01-16T14:00:04;19.58;;;9.40;;
2538;SDS011;1280;49.760;9.664;2024-01-16T14:02:39;18.20;;;8.20;;
2538;SDS011;1280;49.760;9.664;2024-01-16T14:05:08;13.63;;;9.05;;
2538;SDS011;1280;49.760;9.664;2024-01-16T14:07:40;16.80;;;8.60;;
2538;SDS011;1280;49.760;9.664;2024-01-16T14:10:08;16.27;;;9.20;;
2538;SDS011;1280;49.760;9.664;2024-01-16T14:12:38;16.48;;;8.75;;
2538;SDS011;1280;49.760;9.664;2024-01-16T14:15:09;15.60;;;8.40;;
2538;SDS011;1280;49.760;9.664;2024-01-16T14:17:45;14.65;;;8.57;;
2538;SDS011;1280;49.760;9.664;2024-01-16T14:20:14;16.13;;;9.07;;
2538;SDS011;1280;49.760;9.664;2024-01-16T14:22:45;17.48;;;9.02;;
2538;SDS011;1280;49.760;9.664;2024-01-16T14:25:13;17.08;;;10.27;;
2538;SDS011;1280;49.760;9.664;2024-01-16T14:27:41;15.55;;;9.00;;
2538;SDS011;1280;49.760;9.664;2024-01-16T14:30:11;16.98;;;8.93;;
2538;SDS011;1280;49.760;9.664;2024-01-16T14:32:40;13.63;;;8.20;;
2538;SDS011;1280;49.760;9.664;2024-01-16T14:35:10;17.42;;;8.25;;
2538;SDS011;1280;49.760;9.664;2024-01-16T14:37:40;13.63;;;8.68;;
2538;SDS011;1280;49.760;9.664;2024-01-16T14:40:10;13.90;;;8.23;;
2538;SDS011;1280;49.760;9.664;2024-01-16T14:42:42;17.15;;;9.32;;
2538;SDS011;1280;49.760;9.664;2024-01-16T14:45:11;18.42;;;8.82;;
2538;SDS011;1280;49.760;9.664;2024-01-16T14:47:39;17.08;;;8.75;;
2538;SDS011;1280;49.760;9.664;2024-01-16T14:50:07;14.82;;;9.15;;
2538;SDS011;1280;49.760;9.664;2024-01-16T14:52:36;18.75;;;9.57;;
2538;SDS011;1280;49.760;9.664;2024-01-16T14:55:05;17.00;;;9.23;;
2538;SDS011;1280;49.760;9.664;2024-01-16T14:57:35;20.23;;;9.20;;
2538;SDS011;1280;49.760;9.664;2024-01-16T15:00:08;20.75;;;9.50;;
2538;SDS011;1280;49.760;9.664;2024-01-16T15:02:41;15.95;;;8.57;;
2538;SDS011;1280;49.760;9.664;2024-01-16T15:05:10;16.27;;;8.60;;
2538;SDS011;1280;49.760;9.664;2024-01-16T15:07:39;22.50;;;9.40;;
2538;SDS011;1280;49.760;9.664;2024-01-16T15:10:09;18.55;;;9.00;;
2538;SDS011;1280;49.760;9.664;2024-01-16T15:12:40;18.02;;;9.25;;
2538;SDS011;1280;49.760;9.664;2024-01-16T15:15:09;17.45;;;9.15;;
2538;SDS011;1280;49.760;9.664;2024-01-16T15:17:39;16.58;;;8.30;;
2538;SDS011;1280;49.760;9.664;2024-01-16T15:20:08;12.95;;;7.95;;
2538;SDS011;1280;49.760;9.664;2024-01-16T15:22:37;18.70;;;8.05;;
2538;SDS011;1280;49.760;9.664;2024-01-16T15:25:09;13.05;;;6.93;;
2538;SDS011;1280;49.760;9.664;2024-01-16T15:27:39;16.98;;;8.32;;